Time;durP1;ratioP1;P1;durP2;ratioP2;P2;SDS_P1;SDS_P2;PMS_P1;PMS_P2;Temp;Humidity;BMP_temperature;BMP_pressure;BME280_temperature;BME280_humidity;BME280_pressure;Samples;Min_cycle;Max_cycle;Signal;HPM_P1;HPM_P2
2022/08/20 00:00:55;;;;;;;15.23;8.87;;;22.20;99.90;;;;;;5034879;28;20477;-75
2022/08/20 00:03:26;;;;;;;16.70;9.20;;;22.00;99.90;;;;;;5033318;28;20461;-74
2022/08/20 00:05:57;;;;;;;15.70;9.00;;;22.00;99.90;;;;;;5050334;28;20487;-75
2022/08/20 00:08:34;;;;;;;16.47;10.23;;;22.10;99.90;;;;;;5044086;28;20533;-74
2022/08/20 00:11:02;;;;;;;19.73;10.60;;;22.10;99.90;;;;;;5040144;28;20462;-74
2022/08/20 00:13:40;;;;;;;14.73;9.43;;;22.30;99.90;;;;;;5034115;28;20463;-74
2022/08/20 00:16:12;;;;;;;15.30;8.97;;;22.40;99.90;;;;;;5033766;28;20530;-74
2022/08/20 00:18:47;;;;;;;22.13;11.50;;;22.50;99.90;;;;;;5033740;28;20472;-73
2022/08/20 00:21:19;;;;;;;14.97;11.10;;;22.40;99.90;;;;;;5035576;28;20460;-74
2022/08/20 00:23:58;;;;;;;17.90;10.60;;;22.40;99.90;;;;;;5035890;28;20544;-74
2022/08/20 00:26:32;;;;;;;15.00;8.57;;;22.30;99.90;;;;;;5031322;28;20475;-74
2022/08/20 00:29:00;;;;;;;16.93;10.50;;;22.40;99.90;;;;;;5037845;28;20956;-74
2022/08/20 00:31:31;;;;;;;19.20;9.57;;;22.20;99.90;;;;;;5046329;28;20528;-75
2022/08/20 00:33:59;;;;;;;22.47;11.10;;;22.30;99.90;;;;;;5033585;28;20463;-76
2022/08/20 00:36:26;;;;;;;14.60;8.80;;;22.30;99.90;;;;;;5030268;28;20494;-75
2022/08/20 00:38:55;;;;;;;14.90;9.13;;;22.20;99.90;;;;;;5021719;28;20491;-75
2022/08/20 00:41:25;;;;;;;15.43;9.60;;;22.30;99.90;;;;;;5028686;28;20556;-75
2022/08/20 00:44:08;;;;;;;21.07;9.20;;;22.10;99.90;;;;;;5027016;28;20466;-74
2022/08/20 00:46:37;;;;;;;17.27;8.97;;;22.20;99.90;;;;;;5035026;28;20476;-75
2022/08/20 00:49:12;;;;;;;20.20;11.30;;;22.30;99.90;;;;;;5034242;28;20570;-74
2022/08/20 00:51:43;;;;;;;20.93;10.60;;;22.40;99.90;;;;;;5031281;28;20463;-74
2022/08/20 00:54:19;;;;;;;17.67;9.77;;;22.50;99.90;;;;;;5033919;28;20518;-74
2022/08/20 00:56:56;;;;;;;15.93;9.90;;;22.60;99.90;;;;;;5032025;28;20477;-74
2022/08/20 00:59:27;;;;;;;15.60;9.23;;;22.80;99.90;;;;;;5030672;28;20475;-74
2022/08/20 01:02:01;;;;;;;15.80;9.67;;;22.80;99.90;;;;;;5035920;28;20504;-73
2022/08/20 01:04:30;;;;;;;18.33;9.50;;;22.60;99.90;;;;;;5041438;28;20548;-74
2022/08/20 01:07:06;;;;;;;20.13;10.10;;;22.30;99.90;;;;;;5037009;28;20452;-75
2022/08/20 01:09:37;;;;;;;15.97;9.60;;;22.20;99.90;;;;;;5037170;28;20535;-74
2022/08/20 01:12:08;;;;;;;20.90;11.80;;;22.20;99.90;;;;;;5038682;28;20506;-75
2022/08/20 01:14:42;;;;;;;18.57;9.90;;;22.30;99.90;;;;;;5033563;28;20565;-76
2022/08/20 01:17:16;;;;;;;22.13;10.00;;;22.30;99.90;;;;;;5028219;28;20551;-76
2022/08/20 01:19:54;;;;;;;19.57;11.07;;;22.40;99.90;;;;;;5024900;28;20457;-74
2022/08/20 01:25:35;;;;;;;16.97;10.13;;;22.30;99.90;;;;;;5034392;28;20609;-75
2022/08/20 01:28:10;;;;;;;17.33;10.80;;;22.30;99.90;;;;;;5032781;28;20945;-73
2022/08/20 01:30:42;;;;;;;15.07;9.13;;;22.30;99.90;;;;;;5034634;28;20469;-74
2022/08/20 01:36:36;;;;;;;21.90;11.07;;;22.40;99.90;;;;;;5030083;28;21107;-73
2022/08/20 01:39:16;;;;;;;15.13;9.60;;;22.30;99.90;;;;;;5036311;28;20522;-74
2022/08/20 01:42:04;;;;;;;14.03;8.60;;;22.30;99.90;;;;;;5034272;28;20452;-74
2022/08/20 01:44:37;;;;;;;20.10;12.03;;;22.40;99.90;;;;;;5038498;28;20467;-74
2022/08/20 01:47:14;;;;;;;13.80;9.20;;;22.40;99.90;;;;;;5033211;28;20515;-74
2022/08/20 01:49:45;;;;;;;17.73;10.60;;;22.50;99.90;;;;;;5030445;28;20864;-74
2022/08/20 01:52:17;;;;;;;19.80;10.97;;;22.40;99.90;;;;;;5037582;28;20453;-74
2022/08/20 01:54:45;;;;;;;19.93;10.37;;;22.30;99.90;;;;;;5033436;28;20497;-74
2022/08/20 01:57:16;;;;;;;17.43;10.63;;;22.00;99.90;;;;;;5043285;28;20970;-74
2022/08/20 01:59:54;;;;;;;17.33;11.07;;;22.10;99.90;;;;;;5034895;28;21071;-74
2022/08/20 02:02:26;;;;;;;17.77;9.73;;;22.10;99.90;;;;;;5038949;28;20568;-74
2022/08/20 02:04:53;;;;;;;12.33;9.83;;;22.10;99.90;;;;;;5034015;28;20880;-75
2022/08/20 02:07:26;;;;;;;14.20;10.10;;;22.00;99.90;;;;;;5037780;28;20448;-74
2022/08/20 02:09:53;;;;;;;16.10;9.97;;;21.90;99.90;;;;;;5037172;28;20479;-74
2022/08/20 02:12:20;;;;;;;16.50;10.60;;;22.00;99.90;;;;;;5038318;28;20537;-74
2022/08/20 02:14:55;;;;;;;14.70;10.40;;;22.10;99.90;;;;;;5037346;28;20775;-74
2022/08/20 02:17:26;;;;;;;15.53;10.00;;;22.00;99.90;;;;;;5030355;28;20510;-74
2022/08/20 02:20:05;;;;;;;18.40;12.10;;;21.80;99.90;;;;;;5026533;28;20468;-72
2022/08/20 02:22:41;;;;;;;15.43;10.60;;;21.90;99.90;;;;;;5036121;28;20467;-72
2022/08/20 02:25:13;;;;;;;13.67;10.20;;;21.90;99.90;;;;;;5032849;28;20508;-72
2022/08/20 02:27:55;;;;;;;17.50;10.57;;;22.00;99.90;;;;;;5042654;28;20475;-72
2022/08/20 02:30:32;;;;;;;16.93;10.67;;;22.10;99.90;;;;;;5035501;28;20540;-73
2022/08/20 02:33:02;;;;;;;22.37;11.33;;;22.10;99.90;;;;;;5029418;28;20773;-73
2022/08/20 02:35:41;;;;;;;15.63;10.80;;;22.00;99.90;;;;;;5032766;28;20480;-73
2022/08/20 02:38:11;;;;;;;15.20;10.37;;;21.90;99.90;;;;;;5035720;28;20471;-72
2022/08/20 02:40:48;;;;;;;14.53;8.93;;;21.90;99.90;;;;;;5037836;28;20452;-72
2022/08/20 02:43:18;;;;;;;13.10;9.17;;;21.90;99.90;;;;;;5044720;28;20463;-72
2022/08/20 02:45:53;;;;;;;16.67;10.80;;;21.90;99.90;;;;;;5038285;28;21010;-72
2022/08/20 02:48:28;;;;;;;15.10;8.63;;;21.80;99.90;;;;;;5035135;28;21634;-72
2022/08/20 02:51:04;;;;;;;15.10;9.57;;;21.80;99.90;;;;;;5039476;28;20813;-72
2022/08/20 02:53:35;;;;;;;11.90;8.70;;;21.80;99.90;;;;;;5039482;28;20539;-72
2022/08/20 02:56:02;;;;;;;14.20;9.30;;;21.90;99.90;;;;;;5031981;28;20476;-73
2022/08/20 02:58:34;;;;;;;15.40;8.87;;;21.90;99.90;;;;;;5028936;28;20484;-74
2022/08/20 03:01:05;;;;;;;16.17;10.93;;;22.00;99.90;;;;;;5041006;28;20502;-73
2022/08/20 03:03:36;;;;;;;15.27;10.40;;;21.90;99.90;;;;;;5035861;28;20455;-72
2022/08/20 03:06:07;;;;;;;16.47;10.10;;;21.90;99.90;;;;;;5046467;28;20523;-73
2022/08/20 03:08:35;;;;;;;21.20;10.47;;;22.00;99.90;;;;;;5040307;28;21005;-73
2022/08/20 03:11:02;;;;;;;14.67;9.20;;;22.00;99.90;;;;;;5033171;28;20535;-72
2022/08/20 03:13:32;;;;;;;16.77;9.90;;;21.90;99.90;;;;;;5043696;28;20456;-73
2022/08/20 03:16:02;;;;;;;16.70;10.93;;;21.80;99.90;;;;;;5051508;23;21361;-72
2022/08/20 03:18:32;;;;;;;16.40;10.03;;;21.80;99.90;;;;;;5030296;28;21098;-72
2022/08/20 03:20:59;;;;;;;15.90;10.10;;;21.70;99.90;;;;;;5034793;28;21214;-72
2022/08/20 03:23:26;;;;;;;14.00;9.03;;;21.70;99.90;;;;;;5044059;28;20458;-72
2022/08/20 03:25:53;;;;;;;16.67;9.47;;;21.70;99.90;;;;;;5030928;28;20485;-72
2022/08/20 03:28:20;;;;;;;15.00;8.77;;;21.70;99.90;;;;;;5037260;28;20467;-72
2022/08/20 03:30:49;;;;;;;19.03;9.07;;;21.70;99.90;;;;;;5036389;28;20995;-72
2022/08/20 03:33:19;;;;;;;13.93;8.80;;;21.60;99.90;;;;;;5029665;28;20496;-72
2022/08/20 03:35:46;;;;;;;19.30;8.67;;;21.50;99.90;;;;;;5033003;28;20491;-72
2022/08/20 03:38:16;;;;;;;15.13;9.17;;;21.50;99.90;;;;;;5036185;28;20491;-72
2022/08/20 03:40:44;;;;;;;13.33;8.40;;;21.50;99.90;;;;;;5041250;28;20814;-72
2022/08/20 03:43:12;;;;;;;18.60;9.97;;;21.50;99.90;;;;;;5033263;28;20461;-72
2022/08/20 03:45:41;;;;;;;15.53;9.47;;;21.40;99.90;;;;;;5034005;28;21103;-72
2022/08/20 03:48:09;;;;;;;16.37;9.23;;;21.50;99.90;;;;;;5034829;28;20972;-72
2022/08/20 03:50:41;;;;;;;17.93;9.00;;;21.50;99.90;;;;;;5036693;28;20948;-73
2022/08/20 03:53:09;;;;;;;16.77;8.10;;;21.50;99.90;;;;;;5043415;28;20460;-72
2022/08/20 03:55:36;;;;;;;17.70;8.80;;;21.30;99.90;;;;;;5027163;28;20550;-72
2022/08/20 03:58:08;;;;;;;14.50;7.13;;;21.30;99.90;;;;;;5031690;28;20852;-72
2022/08/20 04:00:39;;;;;;;18.63;8.33;;;21.30;99.90;;;;;;5037583;28;20566;-72
2022/08/20 04:03:07;;;;;;;14.40;8.20;;;21.20;99.90;;;;;;5032570;28;20724;-72
2022/08/20 04:05:39;;;;;;;15.33;9.27;;;21.20;99.90;;;;;;5031161;28;20460;-73
2022/08/20 04:08:11;;;;;;;12.93;8.67;;;21.20;99.90;;;;;;5025587;28;21075;-72
2022/08/20 04:10:39;;;;;;;14.00;8.30;;;21.20;99.90;;;;;;5038559;28;20455;-72
2022/08/20 04:13:07;;;;;;;14.63;9.47;;;21.10;99.90;;;;;;5040184;28;20903;-73
2022/08/20 04:15:36;;;;;;;12.97;8.20;;;21.10;99.90;;;;;;5034698;28;20905;-74
2022/08/20 04:18:06;;;;;;;16.40;9.03;;;20.90;99.90;;;;;;5037882;28;20787;-73
2022/08/20 04:20:35;;;;;;;11.37;7.70;;;20.90;99.90;;;;;;5029931;28;20544;-72
2022/08/20 04:23:04;;;;;;;12.80;8.77;;;21.00;99.90;;;;;;5024347;28;21096;-72
2022/08/20 04:25:33;;;;;;;18.20;9.40;;;20.90;99.90;;;;;;5030571;28;20984;-71
2022/08/20 04:28:01;;;;;;;9.17;6.70;;;21.00;99.90;;;;;;5022372;28;20455;-71
2022/08/20 04:30:29;;;;;;;11.43;7.63;;;21.00;99.90;;;;;;5031248;28;20471;-72
2022/08/20 04:32:57;;;;;;;11.00;7.60;;;21.10;99.90;;;;;;5037605;28;20464;-72
2022/08/20 04:35:25;;;;;;;16.00;8.60;;;21.20;99.90;;;;;;5039059;28;20948;-72
2022/08/20 04:37:59;;;;;;;17.87;8.43;;;21.20;99.90;;;;;;5038607;28;20490;-72
2022/08/20 04:43:12;;;;;;;13.20;7.60;;;21.30;99.90;;;;;;5039497;28;20609;-72
2022/08/20 04:45:40;;;;;;;12.33;7.90;;;21.40;99.90;;;;;;5038881;28;20479;-72
2022/08/20 04:48:07;;;;;;;14.83;9.67;;;21.50;99.90;;;;;;5035340;28;20508;-72
2022/08/20 04:50:35;;;;;;;14.77;8.40;;;21.50;99.90;;;;;;5035470;28;20849;-72
2022/08/20 04:53:04;;;;;;;17.27;10.40;;;21.50;99.90;;;;;;5037337;28;20464;-73
2022/08/20 04:55:33;;;;;;;19.70;8.97;;;21.60;99.90;;;;;;5037943;28;21045;-72
2022/08/20 04:58:03;;;;;;;14.57;8.67;;;21.30;99.90;;;;;;5035603;28;20496;-73
2022/08/20 05:00:31;;;;;;;15.27;8.10;;;21.30;99.90;;;;;;5035730;28;20478;-72
2022/08/20 05:02:58;;;;;;;14.43;9.67;;;21.40;99.90;;;;;;5030128;28;20495;-72
2022/08/20 05:05:26;;;;;;;11.40;7.20;;;21.50;99.90;;;;;;5024062;28;27387;-72
2022/08/20 05:07:54;;;;;;;16.30;8.80;;;21.60;99.90;;;;;;5036843;28;20536;-72
2022/08/20 05:10:22;;;;;;;17.43;8.40;;;21.60;99.90;;;;;;5038740;28;20614;-73
2022/08/20 05:12:50;;;;;;;15.90;10.07;;;21.80;99.90;;;;;;5038182;28;20516;-73
2022/08/20 05:15:17;;;;;;;15.90;9.03;;;21.70;99.90;;;;;;5039676;28;20456;-72
2022/08/20 05:17:44;;;;;;;19.03;11.27;;;21.50;99.90;;;;;;5030019;28;21050;-72
2022/08/20 05:20:15;;;;;;;20.30;10.43;;;21.50;99.90;;;;;;5033907;28;20456;-72
2022/08/20 05:22:42;;;;;;;13.87;9.20;;;21.70;99.90;;;;;;5041842;28;20456;-71
2022/08/20 05:25:09;;;;;;;16.33;11.33;;;21.70;99.90;;;;;;5043968;28;21344;-72
2022/08/20 05:27:36;;;;;;;18.27;10.33;;;21.40;99.90;;;;;;5040045;28;20469;-72
2022/08/20 05:30:09;;;;;;;17.13;10.33;;;21.40;99.90;;;;;;5028282;28;20472;-72
2022/08/20 05:32:36;;;;;;;20.87;10.40;;;21.60;99.90;;;;;;5027734;28;20818;-72
2022/08/20 05:35:03;;;;;;;15.73;10.40;;;21.80;99.90;;;;;;5043178;28;20531;-72
2022/08/20 05:37:30;;;;;;;20.93;10.43;;;21.90;99.90;;;;;;5042888;28;20472;-72
2022/08/20 05:39:57;;;;;;;15.07;11.03;;;22.10;99.90;;;;;;5045528;28;20453;-72
2022/08/20 05:42:25;;;;;;;13.60;8.70;;;22.00;99.90;;;;;;5038530;28;27999;-72
2022/08/20 05:44:52;;;;;;;20.50;12.20;;;21.90;99.90;;;;;;5041097;28;20456;-72
2022/08/20 05:47:26;;;;;;;15.23;8.80;;;21.90;99.90;;;;;;5042429;28;20552;-72
2022/08/20 05:49:53;;;;;;;18.50;8.70;;;21.80;99.90;;;;;;5044722;28;20464;-72
2022/08/20 05:52:20;;;;;;;17.50;10.00;;;21.80;99.90;;;;;;5044276;28;20812;-72
2022/08/20 05:54:47;;;;;;;14.83;10.50;;;22.10;99.90;;;;;;5040054;28;20452;-72
2022/08/20 05:57:18;;;;;;;14.97;9.50;;;22.00;99.90;;;;;;5043739;28;20501;-73
2022/08/20 05:59:44;;;;;;;16.47;9.97;;;21.70;99.90;;;;;;5037869;28;20475;-72
2022/08/20 06:04:54;;;;;;;15.27;10.87;;;21.80;99.90;;;;;;5043542;28;20582;-73
2022/08/20 06:07:21;;;;;;;12.97;9.07;;;22.10;99.90;;;;;;5040230;28;20734;-72
2022/08/20 06:09:47;;;;;;;14.83;9.67;;;22.30;99.90;;;;;;5038477;28;20780;-73
2022/08/20 06:12:15;;;;;;;12.50;8.03;;;22.40;99.90;;;;;;5045677;28;20451;-73
2022/08/20 06:14:42;;;;;;;12.50;8.43;;;22.60;99.90;;;;;;5047235;28;20460;-73
2022/08/20 06:17:12;;;;;;;10.63;7.77;;;22.80;99.90;;;;;;5042624;28;20862;-73
2022/08/20 06:19:43;;;;;;;14.63;9.03;;;22.50;99.90;;;;;;5033726;28;20622;-73
2022/08/20 06:22:12;;;;;;;16.60;10.30;;;22.20;99.90;;;;;;5034030;28;20833;-73
2022/08/20 06:24:39;;;;;;;16.63;8.43;;;22.20;99.90;;;;;;5034528;28;20470;-73
2022/08/20 06:27:06;;;;;;;14.93;9.10;;;22.20;99.90;;;;;;5034941;28;20488;-73
2022/08/20 06:29:35;;;;;;;9.90;6.87;;;22.30;99.90;;;;;;5028121;28;20870;-73
2022/08/20 06:32:02;;;;;;;12.10;8.07;;;22.00;99.90;;;;;;5034421;28;20460;-73
2022/08/20 06:34:30;;;;;;;12.97;8.37;;;22.00;99.90;;;;;;5039113;28;20559;-73
2022/08/20 06:36:58;;;;;;;13.60;7.87;;;22.10;99.90;;;;;;5036864;28;20567;-73
2022/08/20 06:39:28;;;;;;;11.50;7.37;;;22.10;99.90;;;;;;5024344;28;20481;-74
2022/08/20 06:41:57;;;;;;;12.80;9.17;;;22.20;99.90;;;;;;5023263;28;20510;-73
2022/08/20 06:44:24;;;;;;;12.73;9.10;;;21.90;99.90;;;;;;5030385;28;20484;-73
2022/08/20 06:46:51;;;;;;;13.00;8.70;;;21.80;99.90;;;;;;5025332;28;20498;-74
2022/08/20 06:49:18;;;;;;;12.80;8.80;;;21.90;99.90;;;;;;5031279;28;20892;-73
2022/08/20 06:51:45;;;;;;;11.57;7.73;;;21.70;99.90;;;;;;5041336;28;20556;-72
2022/08/20 06:54:12;;;;;;;10.90;7.93;;;22.10;99.90;;;;;;5045215;28;21053;-73
2022/08/20 06:56:40;;;;;;;15.50;9.03;;;22.40;99.90;;;;;;5043990;28;20510;-72
2022/08/20 06:59:07;;;;;;;9.87;6.90;;;22.40;99.90;;;;;;5034945;28;20496;-72
2022/08/20 07:01:34;;;;;;;12.13;9.50;;;22.50;99.90;;;;;;5037496;28;20827;-73
2022/08/20 07:04:01;;;;;;;12.77;8.70;;;22.50;99.90;;;;;;5032830;28;20804;-73
2022/08/20 07:06:28;;;;;;;11.60;7.93;;;22.60;99.90;;;;;;5036793;28;20508;-73
2022/08/20 07:08:55;;;;;;;14.53;9.50;;;22.40;99.90;;;;;;5038451;28;20973;-73
2022/08/20 07:11:23;;;;;;;16.47;8.57;;;22.00;99.90;;;;;;5031253;28;20471;-73
2022/08/20 07:13:51;;;;;;;12.37;8.53;;;22.30;99.90;;;;;;5037819;28;20828;-73
2022/08/20 07:16:18;;;;;;;15.70;9.70;;;22.60;99.90;;;;;;5039595;28;20488;-73
2022/08/20 07:18:45;;;;;;;13.37;9.43;;;22.80;99.90;;;;;;5042288;28;20565;-72
2022/08/20 07:21:12;;;;;;;13.53;8.57;;;22.80;99.90;;;;;;5036399;28;20911;-72
2022/08/20 07:23:40;;;;;;;11.90;8.40;;;22.80;99.90;;;;;;5033245;28;20879;-73
2022/08/20 07:26:07;;;;;;;13.70;8.93;;;22.90;99.90;;;;;;5033277;28;20486;-74
2022/08/20 07:28:34;;;;;;;13.67;8.53;;;23.00;99.90;;;;;;5034167;28;20665;-73
2022/08/20 07:33:47;;;;;;;12.63;9.10;;;23.20;99.90;;;;;;5022394;28;20451;-74
2022/08/20 07:36:14;;;;;;;12.70;8.03;;;23.40;99.90;;;;;;5026559;28;20487;-74
2022/08/20 07:38:44;;;;;;;11.67;7.80;;;23.50;99.90;;;;;;5023342;28;20497;-74
2022/08/20 07:41:13;;;;;;;17.30;9.23;;;23.40;99.90;;;;;;5024615;28;20587;-73
2022/08/20 07:43:44;;;;;;;9.63;8.57;;;23.50;99.90;;;;;;5026158;28;20471;-74
2022/08/20 07:46:14;;;;;;;11.20;8.53;;;23.40;99.90;;;;;;5027536;28;20482;-73
2022/08/20 07:48:45;;;;;;;12.23;8.33;;;23.50;99.90;;;;;;5039938;28;20519;-74
2022/08/20 07:51:12;;;;;;;14.70;9.30;;;23.20;99.90;;;;;;5044353;28;20728;-73
2022/08/20 07:53:41;;;;;;;12.87;7.50;;;23.20;99.90;;;;;;5045915;28;20445;-74
2022/08/20 07:56:11;;;;;;;10.90;7.37;;;23.20;99.90;;;;;;5042361;28;20565;-74
2022/08/20 07:58:41;;;;;;;14.83;9.40;;;23.40;99.90;;;;;;5048267;28;20484;-73
2022/08/20 08:01:09;;;;;;;12.80;9.07;;;23.50;99.90;;;;;;5041751;28;20535;-73
2022/08/20 08:03:37;;;;;;;17.13;10.07;;;23.60;99.90;;;;;;5045398;28;20451;-73
2022/08/20 08:06:05;;;;;;;12.13;9.03;;;23.70;99.90;;;;;;5040104;28;21056;-73
2022/08/20 08:08:33;;;;;;;12.47;8.10;;;23.70;99.90;;;;;;5037889;28;20516;-74
2022/08/20 08:11:02;;;;;;;18.03;9.37;;;23.90;99.90;;;;;;5040986;28;20541;-74
2022/08/20 08:13:34;;;;;;;14.20;9.00;;;24.30;99.90;;;;;;5047045;28;20446;-73
2022/08/20 08:16:02;;;;;;;12.57;8.80;;;24.50;99.90;;;;;;5043842;28;20579;-74
2022/08/20 08:18:36;;;;;;;11.80;9.27;;;24.40;99.90;;;;;;5047914;28;20524;-73
2022/08/20 08:21:05;;;;;;;20.00;9.93;;;24.10;99.90;;;;;;5045138;28;20474;-74
2022/08/20 08:23:33;;;;;;;12.67;8.53;;;24.50;99.90;;;;;;5043042;28;20941;-74
2022/08/20 08:26:00;;;;;;;13.80;9.17;;;24.60;99.90;;;;;;5037408;28;20525;-74
2022/08/20 08:28:28;;;;;;;14.47;9.60;;;24.70;99.90;;;;;;5040977;28;20449;-74
2022/08/20 08:30:55;;;;;;;14.77;9.77;;;24.50;99.90;;;;;;5043921;28;20987;-74
2022/08/20 08:33:31;;;;;;;11.83;9.53;;;24.60;99.90;;;;;;5042968;28;20454;-73
2022/08/20 08:36:00;;;;;;;12.30;9.50;;;24.80;99.90;;;;;;5045397;28;20560;-72
2022/08/20 08:38:29;;;;;;;9.23;7.87;;;25.50;99.90;;;;;;5043517;28;20479;-73
2022/08/20 08:41:06;;;;;;;10.40;8.83;;;26.70;99.90;;;;;;5042052;28;20499;-74
2022/08/20 08:43:33;;;;;;;14.47;11.27;;;27.90;99.90;;;;;;5040407;28;20548;-73
2022/08/20 08:46:04;;;;;;;12.27;9.80;;;29.30;99.90;;;;;;5042673;28;20952;-72
2022/08/20 08:48:36;;;;;;;12.03;7.97;;;29.70;99.90;;;;;;5045139;28;20443;-72
2022/08/20 08:51:06;;;;;;;13.30;9.90;;;29.90;99.90;;;;;;5044590;28;20452;-72
2022/08/20 08:53:39;;;;;;;13.80;10.67;;;29.60;99.90;;;;;;5039816;28;20963;-72
2022/08/20 08:56:06;;;;;;;11.00;9.50;;;28.80;99.90;;;;;;5041364;28;21185;-73
2022/08/20 08:58:34;;;;;;;10.80;9.70;;;28.30;99.90;;;;;;5047967;28;20444;-73
2022/08/20 09:01:03;;;;;;;24.83;10.93;;;28.00;99.90;;;;;;5042529;28;20492;-73
2022/08/20 09:03:33;;;;;;;12.77;10.10;;;28.80;99.90;;;;;;5044302;28;20469;-73
2022/08/20 09:06:02;;;;;;;16.20;9.60;;;29.60;99.90;;;;;;5041921;28;20500;-74
2022/08/20 09:08:32;;;;;;;13.00;11.33;;;29.90;99.90;;;;;;5039517;28;20460;-74
2022/08/20 09:11:07;;;;;;;11.93;10.53;;;30.40;99.90;;;;;;5042529;28;20470;-74
2022/08/20 09:13:34;;;;;;;8.90;8.00;;;30.60;99.90;;;;;;5043505;28;20933;-73
2022/08/20 09:16:03;;;;;;;10.70;9.50;;;31.50;99.90;;;;;;5043593;28;20471;-72
2022/08/20 09:18:30;;;;;;;14.17;9.70;;;31.10;99.90;;;;;;5047394;23;21406;-74
2022/08/20 09:20:57;;;;;;;11.50;9.57;;;31.10;99.90;;;;;;5036460;28;20570;-73
2022/08/20 09:23:25;;;;;;;9.10;8.20;;;31.10;99.90;;;;;;5037948;28;20466;-72
2022/08/20 09:25:51;;;;;;;8.13;7.30;;;31.90;99.90;;;;;;5040788;28;20522;-73
2022/08/20 09:28:20;;;;;;;8.40;7.60;;;32.30;99.90;;;;;;5034547;28;20550;-73
2022/08/20 09:30:50;;;;;;;10.73;8.03;;;31.60;99.90;;;;;;5022411;28;20448;-73
2022/08/20 09:33:21;;;;;;;5.63;4.80;;;31.20;99.90;;;;;;5027630;28;20463;-72
2022/08/20 09:35:48;;;;;;;6.63;6.03;;;29.70;99.90;;;;;;5022630;28;20488;-72
2022/08/20 09:38:16;;;;;;;7.50;6.80;;;28.60;99.90;;;;;;5028697;28;20476;-73
2022/08/20 09:40:43;;;;;;;9.50;6.30;;;28.20;99.90;;;;;;5025734;28;20744;-73
2022/08/20 09:43:10;;;;;;;7.03;6.30;;;28.80;99.90;;;;;;5025391;28;20492;-73
2022/08/20 09:45:38;;;;;;;5.83;5.20;;;29.60;99.90;;;;;;5024728;28;20451;-71
2022/08/20 09:48:08;;;;;;;5.30;4.83;;;30.20;99.90;;;;;;5030534;28;20843;-72
2022/08/20 09:50:36;;;;;;;6.80;4.83;;;31.20;99.90;;;;;;5020067;28;20445;-73
2022/08/20 09:53:05;;;;;;;6.77;6.17;;;31.20;99.90;;;;;;5022169;28;20463;-73
2022/08/20 09:55:36;;;;;;;5.80;5.30;;;31.50;99.90;;;;;;5024242;28;20805;-73
2022/08/20 09:58:17;;;;;;;5.03;4.50;;;31.90;99.90;;;;;;5017380;28;20892;-73
2022/08/20 10:00:50;;;;;;;6.33;5.83;;;32.90;99.90;;;;;;5022398;28;20555;-73
2022/08/20 10:03:18;;;;;;;5.13;4.63;;;33.30;99.90;;;;;;5025204;28;20585;-73
2022/08/20 10:05:45;;;;;;;6.87;4.90;;;34.20;99.90;;;;;;5024734;28;20461;-74
2022/08/20 10:08:14;;;;;;;6.67;6.07;;;34.60;99.90;;;;;;5025944;28;20842;-73
2022/08/20 10:10:51;;;;;;;6.27;5.67;;;33.60;99.90;;;;;;5023767;28;20691;-73
2022/08/20 10:13:20;;;;;;;8.93;7.80;;;32.50;99.90;;;;;;5020878;28;20456;-73
2022/08/20 10:15:53;;;;;;;7.67;6.93;;;31.40;99.90;;;;;;5020675;28;20457;-73
2022/08/20 10:18:21;;;;;;;12.63;11.07;;;30.50;99.90;;;;;;5017347;28;20495;-72
2022/08/20 10:20:55;;;;;;;16.00;13.00;;;29.00;99.90;;;;;;5023938;28;20615;-73
2022/08/20 10:23:26;;;;;;;15.30;12.83;;;28.00;99.90;;;;;;5019107;28;20956;-72
2022/08/20 10:26:00;;;;;;;18.00;12.47;;;27.20;99.90;;;;;;5023754;28;20452;-73
2022/08/20 10:28:27;;;;;;;15.53;12.17;;;26.80;99.90;;;;;;5017972;28;20498;-73
2022/08/20 10:30:59;;;;;;;15.30;13.47;;;26.10;99.90;;;;;;5024541;28;20557;-74
2022/08/20 10:33:26;;;;;;;14.83;10.83;;;26.10;99.90;;;;;;5021127;28;20447;-74
2022/08/20 10:35:53;;;;;;;16.80;12.60;;;26.10;99.90;;;;;;5021865;28;20450;-74
2022/08/20 10:38:20;;;;;;;22.53;14.47;;;25.90;99.90;;;;;;5016977;28;21008;-74
2022/08/20 10:40:47;;;;;;;16.97;12.37;;;26.30;99.90;;;;;;5025634;28;20558;-73
2022/08/20 10:43:14;;;;;;;15.57;11.73;;;27.30;99.90;;;;;;5025015;28;20548;-73
2022/08/20 10:45:41;;;;;;;14.53;10.60;;;29.00;99.90;;;;;;5017161;28;20464;-74
2022/08/20 10:48:09;;;;;;;16.83;12.27;;;30.70;99.90;;;;;;5023861;28;20473;-73
2022/08/20 10:50:36;;;;;;;16.57;12.17;;;31.40;99.90;;;;;;5019841;28;20957;-74
2022/08/20 10:53:03;;;;;;;14.03;9.70;;;30.80;99.90;;;;;;5018764;28;20449;-73
2022/08/20 10:55:30;;;;;;;18.73;16.40;;;29.70;99.90;;;;;;5019726;28;20460;-74
2022/08/20 10:57:57;;;;;;;16.80;13.57;;;29.10;99.90;;;;;;5018743;28;20464;-73
2022/08/20 11:00:24;;;;;;;20.17;15.70;;;28.60;99.90;;;;;;5029632;28;20901;-73
2022/08/20 11:02:51;;;;;;;17.50;14.30;;;28.20;99.90;;;;;;5025366;28;20455;-74
2022/08/20 11:05:19;;;;;;;18.47;15.10;;;29.10;99.90;;;;;;5022281;28;20465;-73
2022/08/20 11:07:46;;;;;;;24.67;16.00;;;30.40;99.90;;;;;;5025974;28;20567;-73
2022/08/20 11:10:13;;;;;;;22.70;17.60;;;31.30;99.90;;;;;;5027406;28;20941;-73
2022/08/20 11:12:40;;;;;;;23.17;18.90;;;31.20;99.90;;;;;;5028471;28;20464;-72
2022/08/20 11:15:08;;;;;;;21.40;17.60;;;31.10;99.90;;;;;;5030649;28;20548;-73
2022/08/20 11:17:39;;;;;;;27.17;16.60;;;31.10;99.90;;;;;;5027465;28;21361;-73
2022/08/20 11:20:07;;;;;;;21.87;17.67;;;31.90;99.90;;;;;;5029945;28;20562;-73
2022/08/20 11:22:48;;;;;;;19.97;17.90;;;32.60;99.90;;;;;;5023799;28;20467;-73
2022/08/20 11:25:14;;;;;;;17.73;15.83;;;32.50;99.90;;;;;;5027765;28;20522;-73
2022/08/20 11:27:47;;;;;;;19.13;16.70;;;31.70;99.90;;;;;;5017622;28;20558;-72
2022/08/20 11:30:18;;;;;;;21.73;15.67;;;31.40;99.90;;;;;;5023361;28;20457;-73
2022/08/20 11:32:45;;;;;;;18.63;16.50;;;32.00;99.90;;;;;;5025583;28;20452;-73
2022/08/20 11:35:12;;;;;;;16.30;14.60;;;32.40;99.90;;;;;;5022488;28;20455;-72
2022/08/20 11:37:41;;;;;;;18.63;16.40;;;32.50;99.90;;;;;;5021611;28;20558;-72
2022/08/20 11:40:10;;;;;;;15.47;12.43;;;32.70;99.90;;;;;;5024655;28;20581;-74
2022/08/20 11:42:38;;;;;;;17.83;14.80;;;32.10;99.90;;;;;;5022975;28;20548;-72
2022/08/20 11:45:06;;;;;;;13.30;12.00;;;32.00;99.90;;;;;;5024644;28;20455;-74
2022/08/20 11:47:35;;;;;;;19.33;16.30;;;32.80;99.90;;;;;;5023498;28;20575;-73
2022/08/20 11:50:04;;;;;;;23.20;14.30;;;32.70;99.90;;;;;;5027431;28;20453;-72
2022/08/20 11:52:31;;;;;;;12.60;10.97;;;32.30;99.90;;;;;;5019042;28;20499;-73
2022/08/20 11:55:00;;;;;;;15.57;10.87;;;32.60;99.90;;;;;;5028730;28;20449;-73
2022/08/20 11:57:28;;;;;;;16.17;12.20;;;32.00;99.90;;;;;;5018649;28;20501;-72
2022/08/20 12:00:03;;;;;;;13.83;10.20;;;32.20;99.90;;;;;;5028757;28;20539;-72
2022/08/20 12:02:30;;;;;;;12.00;10.10;;;32.50;99.90;;;;;;5024737;28;20448;-72
2022/08/20 12:04:57;;;;;;;14.17;12.70;;;33.50;99.70;;;;;;5022167;28;20929;-73
2022/08/20 12:07:25;;;;;;;14.20;10.73;;;32.90;98.00;;;;;;5025640;28;20900;-71
2022/08/20 12:09:52;;;;;;;15.27;12.00;;;32.80;98.40;;;;;;5021744;28;20551;-73
2022/08/20 12:12:22;;;;;;;12.97;10.13;;;32.00;99.00;;;;;;5026019;28;20505;-73
2022/08/20 12:14:49;;;;;;;14.27;11.23;;;31.60;99.20;;;;;;5024947;28;20460;-73
2022/08/20 12:17:28;;;;;;;11.67;10.30;;;31.80;99.90;;;;;;5026550;28;20440;-73
2022/08/20 12:19:59;;;;;;;16.60;10.17;;;32.30;99.90;;;;;;5024759;28;20479;-73
2022/08/20 12:22:27;;;;;;;12.23;9.07;;;32.50;99.10;;;;;;5026035;28;20458;-73
2022/08/20 12:24:55;;;;;;;10.80;9.70;;;32.40;99.90;;;;;;5029945;28;20476;-73
2022/08/20 12:27:28;;;;;;;13.07;10.87;;;32.50;99.80;;;;;;5024893;28;20531;-73
2022/08/20 12:29:57;;;;;;;12.83;9.20;;;32.50;98.70;;;;;;5022165;28;20823;-72
2022/08/20 12:32:27;;;;;;;12.40;11.10;;;32.60;99.20;;;;;;5022162;28;20560;-72
2022/08/20 12:34:55;;;;;;;10.93;9.73;;;32.10;99.30;;;;;;5027426;28;20466;-73
2022/08/20 12:37:24;;;;;;;10.00;8.70;;;31.80;99.90;;;;;;5019376;28;20472;-72
2022/08/20 12:40:00;;;;;;;9.90;8.90;;;31.80;99.90;;;;;;5026760;28;20515;-71
2022/08/20 12:42:30;;;;;;;12.53;9.90;;;32.30;99.50;;;;;;5028780;28;20480;-73
2022/08/20 12:44:57;;;;;;;9.20;7.57;;;32.60;98.50;;;;;;5028558;28;20448;-73
2022/08/20 12:47:27;;;;;;;11.03;9.17;;;33.30;96.50;;;;;;5021495;28;20520;-73
2022/08/20 12:49:57;;;;;;;10.07;5.70;;;33.00;96.40;;;;;;5024437;28;20762;-72
2022/08/20 12:55:47;;;;;;;5.17;3.90;;;30.70;99.90;;;;;;5024680;28;20427;-73
2022/08/20 12:58:15;;;;;;;4.60;3.87;;;29.70;99.90;;;;;;5028504;28;20493;-73
2022/08/20 13:00:46;;;;;;;4.60;3.43;;;29.00;99.90;;;;;;5019330;28;20600;-73
2022/08/20 13:03:13;;;;;;;4.40;4.00;;;28.10;99.90;;;;;;5018018;28;20468;-72